19:04
Airports
History
Links
Donate
Help keep this website running!
PayPal
Bitcoin
This page is community maintained. The information is intended for PC simulator navigation or reference.
Always use approved charts for navigation.
CCC2
WINTERLAND
WINTERLAND (CCC2)
Lawn, Newfoundland and Labrador, Canada
(U)
Lat/Lng:47° 8' 14" N / 55° 19' 45" W
47.137222 / -55.329167
Elevation:156'ft / 48mMSL
ID / ICAO:CCC2
Runways:1
Longest:15-33
Asphalt 901m / 2,957ft
Nearby Weather19:00 GMT 2017-12-11
Nearby weather at LFVP, St Pierre located 47.6 nautical miles from CCC2
Altimeter: 29.97
Visibility: 6.2 statute miles
Wind: 14 knots (from 250°)
Temp: 4°c / 39°f
Humidity: 64.9%

METAR: LFVP 111900Z 25014KT 9999 BKN040 BKN073 04/M02 Q1015 NOSIG

(Powered by phpweather)
Airport Radio Frequencies
CTAF: 123.2
Nearby VORs <50NM
Nearby NDBs
Runway 15 / 33
Dimensions:901.2 x 22.9m 2957' x 75'ft
Surface:Asphalt
Edge Lights:Medium intensity
Runway 15 [A]Runway 33 [B]
Heading:127°TH 307°TH
Lat:
Lng:
47° 8' 23"N
55° 20' 2"W
47° 8' 5"N
55° 19' 28"W
TDZ:Yes, lighted
User Notes and Comments
47° 8' 14" N / 55° 19' 45" W
Distance To
Airport ID:
Nearby Airports
(C) St Pierre 47.6 NM
LFVP ( WX ) WSW 237°
(C) Miquelon 49.5 NM
LFVM W 266°
(U) CLARENVILLE 102.2 NM
CCZ3 NE 39°
(C) ST JOHNS INTL 125.0 NM
CYYT ( WX ) ENE 74°
(C) GANDER INTL 129.2 NM
CYQX ( WX ) NNE 15°
(U) EXPLOITS VALLEY BOTWOOD 132.7 NM
CCP2 N 357°
(U) DEER LAKE 171.9 NM
CYDF ( WX ) NW 326°
VFR Chart
Flight Planning at SkyVector.com